Cattaraugus, New York
Current Conditions -  °F | °C
As of 3:15 AM on Friday 24 Oct 2014 (Local Time) from KJHW Reporting Station
Clear Clear  
Wind Chill: 41°   Ceiling: Unl
Heat Index: 45°   Visibility: 10mi
Dew Point: 39°   Wind: 7mph
Humidity: 81%   Direction: 330°NNW
Pressure: 30.03"   Gusts: NA
Location:  42.33°N, 78.87°W
Report Text: KJHW 240715Z AUTO 33006KT 10SM CLR 07/04 A3003 RMK AO1
Loading
Personal Weather Stations






























Interactive Weather Map
Tropical Storm Tracking
New forecast layout! Learn more

10-Day Weather Forecast

Advertisements
Track Severe Weather on mobile